Time;durP1;ratioP1;P1;durP2;ratioP2;P2;SDS_P1;SDS_P2;PMS_P1;PMS_P2;Temp;Humidity;BMP_temperature;BMP_pressure;BME280_temperature;BME280_humidity;BME280_pressure;Samples;Min_cycle;Max_cycle;Signal;HPM_P1;HPM_P2
2022/03/19 00:16:07;;;;;;;14.43;2.55;;;3.00;99.90;;;;;;6031889;23;20023;-41
2022/03/19 00:26:32;;;;;;;16.83;2.28;;;2.90;99.90;;;;;;6002878;23;20024;-42
2022/03/19 00:29:50;;;;;;;11.35;2.08;;;2.90;99.90;;;;;;5978363;23;20031;-41
2022/03/19 00:33:16;;;;;;;13.05;2.20;;;2.90;99.90;;;;;;5978195;23;20047;-41
2022/03/19 00:36:42;;;;;;;11.98;2.00;;;2.90;99.90;;;;;;5976812;23;20483;-41
2022/03/19 00:40:09;;;;;;;10.57;2.45;;;2.90;99.90;;;;;;5954319;23;20671;-41
2022/03/19 00:43:37;;;;;;;8.48;2.30;;;3.00;99.90;;;;;;5977623;23;20090;-41
2022/03/19 00:47:03;;;;;;;12.90;2.63;;;2.90;99.90;;;;;;6004254;23;20463;-41
2022/03/19 00:50:28;;;;;;;7.80;1.95;;;2.90;99.90;;;;;;6002540;23;20023;-41
2022/03/19 00:53:53;;;;;;;12.48;2.10;;;2.90;99.90;;;;;;6001717;23;20359;-41
2022/03/19 00:57:19;;;;;;;9.18;2.60;;;2.90;99.90;;;;;;5952530;23;20034;-41
2022/03/19 01:00:45;;;;;;;11.43;2.45;;;2.90;99.90;;;;;;5975496;23;20099;-41
2022/03/19 01:04:10;;;;;;;13.15;2.63;;;2.90;99.90;;;;;;6002669;23;20482;-41
2022/03/19 01:07:38;;;;;;;7.90;1.95;;;2.80;99.90;;;;;;6003526;23;20039;-41
2022/03/19 01:11:05;;;;;;;13.15;2.58;;;2.80;99.90;;;;;;5955002;23;20015;-41
2022/03/19 01:14:28;;;;;;;18.63;3.15;;;2.80;99.90;;;;;;6001704;23;20446;-40
2022/03/19 01:17:57;;;;;;;11.77;2.53;;;2.80;99.90;;;;;;5980058;23;20023;-41
2022/03/19 01:21:21;;;;;;;8.30;2.33;;;2.90;99.90;;;;;;5953040;23;20038;-41
2022/03/19 01:23:47;;;;;;;14.05;2.78;;;2.90;99.90;;;;;;5975201;23;20036;-41
2022/03/19 01:26:30;;;;;;;13.80;3.00;;;2.90;99.90;;;;;;5979573;23;20083;-41
2022/03/19 01:33:21;;;;;;;18.52;3.08;;;3.00;99.90;;;;;;6000569;23;20058;-41
2022/03/19 01:36:48;;;;;;;14.48;2.35;;;3.00;99.90;;;;;;5975962;23;20532;-40
2022/03/19 01:40:14;;;;;;;10.70;2.70;;;3.00;99.90;;;;;;6000822;23;20016;-40
2022/03/19 01:43:41;;;;;;;12.88;2.90;;;3.10;99.90;;;;;;5975833;23;20119;-41
2022/03/19 01:47:10;;;;;;;10.27;2.22;;;3.40;99.90;;;;;;6002602;23;20665;-41
2022/03/19 01:50:30;;;;;;;8.82;2.30;;;3.00;99.90;;;;;;6000746;23;20068;-41
2022/03/19 01:53:58;;;;;;;15.90;3.30;;;3.10;99.90;;;;;;6005178;23;20015;-41
2022/03/19 01:57:23;;;;;;;11.85;2.17;;;3.00;99.90;;;;;;6004281;23;20400;-41
2022/03/19 02:04:16;;;;;;;10.73;2.65;;;2.90;99.90;;;;;;6003818;23;20501;-41
2022/03/19 02:07:42;;;;;;;9.50;2.40;;;2.80;99.90;;;;;;6000787;23;20019;-41
2022/03/19 02:11:08;;;;;;;14.38;3.30;;;2.80;99.90;;;;;;6002401;23;20015;-41
2022/03/19 02:14:34;;;;;;;13.48;2.53;;;2.70;99.90;;;;;;5977911;23;20028;-43
2022/03/19 02:18:00;;;;;;;19.35;3.05;;;2.70;99.90;;;;;;5979610;23;20024;-40
2022/03/19 02:21:26;;;;;;;18.67;3.58;;;2.80;99.90;;;;;;6003100;23;20020;-40
2022/03/19 02:28:19;;;;;;;14.35;2.70;;;2.80;99.90;;;;;;6001191;23;20027;-40
2022/03/19 02:31:43;;;;;;;14.80;3.42;;;2.80;99.90;;;;;;5976083;23;20140;-40
2022/03/19 02:35:09;;;;;;;13.57;2.90;;;2.80;99.90;;;;;;5973582;23;20067;-40
2022/03/19 02:38:35;;;;;;;10.82;3.38;;;2.80;99.90;;;;;;6000834;23;20020;-41
2022/03/19 02:42:00;;;;;;;15.88;2.65;;;2.80;99.90;;;;;;6004719;23;20074;-41
2022/03/19 02:45:26;;;;;;;12.13;2.90;;;2.90;99.90;;;;;;5979532;23;20012;-41
2022/03/19 02:48:52;;;;;;;12.32;3.22;;;2.90;99.90;;;;;;5978109;23;20061;-41
2022/03/19 02:52:19;;;;;;;10.77;2.95;;;2.90;99.90;;;;;;6000407;23;20089;-41
2022/03/19 02:55:46;;;;;;;14.80;3.13;;;2.90;99.90;;;;;;6002019;23;20019;-41
2022/03/19 02:59:13;;;;;;;18.20;3.55;;;2.90;99.90;;;;;;6002936;23;20016;-41
2022/03/19 03:02:38;;;;;;;15.70;3.80;;;3.00;99.90;;;;;;6003300;23;20020;-41
2022/03/19 03:09:49;;;;;;;12.02;3.63;;;3.00;99.90;;;;;;6001009;23;20035;-41
2022/03/19 03:13:05;;;;;;;17.02;3.90;;;3.00;99.90;;;;;;6002431;23;20058;-41
2022/03/19 03:16:23;;;;;;;14.07;3.45;;;3.00;99.90;;;;;;6001863;23;20012;-41
2022/03/19 03:19:47;;;;;;;10.32;2.92;;;3.00;99.90;;;;;;6001395;23;20091;-41
2022/03/19 03:23:14;;;;;;;9.25;3.22;;;2.90;99.90;;;;;;5999965;23;20024;-41
2022/03/19 03:26:37;;;;;;;9.85;2.97;;;2.80;99.90;;;;;;6002168;23;20076;-41
2022/03/19 03:30:04;;;;;;;18.95;3.40;;;2.70;99.90;;;;;;6004140;23;20087;-41
2022/03/19 03:33:31;;;;;;;12.88;3.22;;;2.70;99.90;;;;;;6002296;23;20141;-41
2022/03/19 03:36:57;;;;;;;10.90;3.05;;;2.60;99.90;;;;;;5977035;23;20305;-41
2022/03/19 03:40:23;;;;;;;18.08;3.97;;;2.60;99.90;;;;;;6001715;23;20522;-41
2022/03/19 03:43:49;;;;;;;16.50;3.95;;;2.70;99.90;;;;;;6000639;23;20023;-41
2022/03/19 03:47:14;;;;;;;14.10;4.25;;;2.70;99.90;;;;;;5999696;23;20016;-41
2022/03/19 03:50:41;;;;;;;11.73;4.28;;;2.80;99.90;;;;;;6000074;23;20031;-41
2022/03/19 03:54:07;;;;;;;16.45;4.22;;;2.90;99.90;;;;;;5977228;23;20012;-41
2022/03/19 03:57:34;;;;;;;19.17;5.05;;;3.00;99.90;;;;;;5979071;23;20015;-41
2022/03/19 04:00:57;;;;;;;12.32;4.45;;;3.00;99.90;;;;;;6002464;23;20027;-41
2022/03/19 04:04:24;;;;;;;12.00;3.90;;;3.00;99.90;;;;;;6002280;23;20031;-41
2022/03/19 04:07:54;;;;;;;13.32;4.10;;;2.90;99.90;;;;;;6003336;23;20015;-42
2022/03/19 04:11:18;;;;;;;13.23;4.30;;;2.90;99.90;;;;;;5978490;23;20443;-42
2022/03/19 04:14:45;;;;;;;11.48;4.00;;;2.80;99.90;;;;;;6001168;23;20094;-41
2022/03/19 04:18:09;;;;;;;14.48;4.38;;;2.60;99.90;;;;;;6000433;23;20024;-41
2022/03/19 04:21:35;;;;;;;16.67;4.30;;;2.50;99.90;;;;;;6002278;23;20020;-41
2022/03/19 04:25:03;;;;;;;11.15;3.85;;;2.50;99.90;;;;;;6030220;23;20067;-41
2022/03/19 04:28:29;;;;;;;13.27;4.40;;;2.40;99.90;;;;;;5982375;23;20100;-40
2022/03/19 04:31:54;;;;;;;16.42;4.60;;;2.50;99.90;;;;;;6031992;23;20196;-41
2022/03/19 04:38:46;;;;;;;22.67;5.22;;;2.50;99.90;;;;;;6033152;23;20023;-42
2022/03/19 04:42:12;;;;;;;18.42;5.30;;;2.50;99.90;;;;;;6006732;23;20438;-42
2022/03/19 04:45:38;;;;;;;16.90;5.40;;;2.50;99.90;;;;;;6030723;23;20022;-42
2022/03/19 04:49:04;;;;;;;16.73;5.15;;;2.40;99.90;;;;;;5982496;23;20073;-41
2022/03/19 04:52:30;;;;;;;16.45;5.85;;;2.40;99.90;;;;;;6029322;23;20030;-41
2022/03/19 04:55:56;;;;;;;18.80;5.85;;;2.50;99.90;;;;;;6030016;23;20423;-41
2022/03/19 05:02:51;;;;;;;16.15;5.97;;;2.50;99.90;;;;;;6007220;23;20062;-42
2022/03/19 05:06:14;;;;;;;17.85;6.30;;;2.50;99.90;;;;;;6028940;23;20118;-41
2022/03/19 05:13:07;;;;;;;20.98;7.70;;;2.50;99.90;;;;;;6006235;23;20030;-42
2022/03/19 05:16:34;;;;;;;19.92;8.07;;;2.50;99.90;;;;;;6029514;23;20613;-41
2022/03/19 05:20:00;;;;;;;20.73;8.32;;;2.70;99.90;;;;;;5980008;23;20046;-42
2022/03/19 05:26:59;;;;;;;20.73;9.05;;;2.80;99.90;;;;;;6003155;23;20020;-42
2022/03/19 05:30:18;;;;;;;18.85;7.57;;;2.70;99.90;;;;;;5984480;23;20016;-41
2022/03/19 05:37:12;;;;;;;18.05;8.30;;;2.90;99.90;;;;;;6007243;23;20094;-41
2022/03/19 05:40:36;;;;;;;21.08;9.88;;;3.00;99.90;;;;;;6005997;23;20017;-41
2022/03/19 05:44:02;;;;;;;26.60;9.07;;;3.10;99.90;;;;;;5983870;23;20023;-41
2022/03/19 05:47:29;;;;;;;26.48;11.52;;;3.10;99.90;;;;;;6009006;23;20061;-41
2022/03/19 05:50:54;;;;;;;21.70;11.02;;;3.20;99.90;;;;;;6030674;23;20015;-41
2022/03/19 05:54:22;;;;;;;31.00;12.25;;;3.20;99.90;;;;;;6031942;23;20015;-42
2022/03/19 05:57:48;;;;;;;24.30;11.43;;;3.20;99.90;;;;;;6033917;23;20023;-41
2022/03/19 06:01:13;;;;;;;29.20;10.80;;;3.20;99.90;;;;;;6029060;23;20059;-41
2022/03/19 06:04:39;;;;;;;26.50;10.27;;;3.20;99.90;;;;;;6005498;23;20327;-42
2022/03/19 06:08:05;;;;;;;16.92;8.52;;;3.30;99.90;;;;;;6007860;23;20019;-41
2022/03/19 06:11:33;;;;;;;16.70;9.20;;;3.40;99.90;;;;;;5982914;23;20019;-41
2022/03/19 06:15:08;;;;;;;21.15;8.48;;;3.40;99.90;;;;;;6006161;23;20370;-41
2022/03/19 06:18:24;;;;;;;18.50;8.32;;;3.50;99.90;;;;;;6006229;23;20023;-41
2022/03/19 06:21:49;;;;;;;18.80;7.53;;;3.50;99.90;;;;;;6028210;23;20023;-42
2022/03/19 06:25:17;;;;;;;24.30;9.52;;;3.60;99.90;;;;;;5978663;23;20384;-41
2022/03/19 06:28:44;;;;;;;20.42;8.43;;;3.70;99.90;;;;;;5979592;23;20667;-41
2022/03/19 06:32:09;;;;;;;17.27;7.70;;;4.00;99.90;;;;;;6004525;23;20091;-41
2022/03/19 06:39:03;;;;;;;18.73;6.85;;;4.40;99.90;;;;;;5978559;23;20023;-43
2022/03/19 06:42:28;;;;;;;20.42;6.65;;;4.70;99.90;;;;;;6003388;23;20603;-42
2022/03/19 06:45:57;;;;;;;18.00;6.43;;;5.00;99.90;;;;;;6000928;23;20046;-42
2022/03/19 06:49:20;;;;;;;18.02;6.50;;;5.20;99.90;;;;;;5976228;23;20027;-41
2022/03/19 06:52:46;;;;;;;14.55;6.53;;;5.50;99.90;;;;;;5978858;23;20023;-42
2022/03/19 06:56:12;;;;;;;20.38;6.38;;;5.60;99.90;;;;;;6003118;23;20383;-43
2022/03/19 06:59:36;;;;;;;17.27;7.00;;;5.70;99.90;;;;;;5979649;23;20543;-43
2022/03/19 07:03:04;;;;;;;18.00;6.78;;;6.40;99.90;;;;;;6002201;23;20114;-44
2022/03/19 07:06:30;;;;;;;22.63;6.50;;;7.10;99.90;;;;;;5976587;23;20050;-43
2022/03/19 07:09:59;;;;;;;17.45;5.93;;;7.80;99.90;;;;;;5975174;23;20023;-44
2022/03/19 07:13:22;;;;;;;17.35;6.57;;;8.10;99.90;;;;;;5975557;23;20020;-44
2022/03/19 07:16:46;;;;;;;19.25;6.85;;;8.30;99.90;;;;;;5975987;23;20051;-45
2022/03/19 07:20:14;;;;;;;17.05;6.55;;;8.40;99.90;;;;;;5973158;23;20082;-44
2022/03/19 07:23:41;;;;;;;16.40;6.05;;;8.70;99.90;;;;;;5958538;23;20649;-44
2022/03/19 07:27:06;;;;;;;16.17;6.00;;;9.30;99.90;;;;;;6002419;23;20028;-44
2022/03/19 07:30:34;;;;;;;19.33;5.65;;;9.30;99.90;;;;;;6000880;23;20729;-44
2022/03/19 07:33:57;;;;;;;16.20;6.20;;;9.80;99.90;;;;;;6002058;23;20019;-45
2022/03/19 07:37:24;;;;;;;17.70;6.20;;;10.30;99.90;;;;;;6029188;23;20744;-44
2022/03/19 07:44:17;;;;;;;13.32;5.55;;;10.30;99.90;;;;;;6006667;23;20023;-45
2022/03/19 07:47:41;;;;;;;17.40;5.90;;;10.70;99.90;;;;;;5984106;23;20350;-46
2022/03/19 07:51:09;;;;;;;12.27;4.88;;;11.10;99.90;;;;;;6029241;23;20016;-44
2022/03/19 07:54:36;;;;;;;12.18;4.82;;;11.30;99.90;;;;;;5999762;23;20023;-45
2022/03/19 07:58:02;;;;;;;14.23;5.32;;;11.50;99.90;;;;;;6003883;23;20030;-45
2022/03/19 08:01:29;;;;;;;15.23;5.20;;;12.10;99.90;;;;;;5978155;23;20023;-45
2022/03/19 08:04:52;;;;;;;14.32;4.60;;;12.30;99.90;;;;;;5976244;23;20038;-45
2022/03/19 08:08:19;;;;;;;17.20;4.72;;;12.90;99.90;;;;;;6001921;23;20023;-45
2022/03/19 08:15:23;;;;;;;13.13;4.85;;;13.10;99.90;;;;;;6005338;23;20082;-44
2022/03/19 08:18:41;;;;;;;13.25;5.05;;;13.40;99.90;;;;;;5980016;23;20426;-46
2022/03/19 08:22:02;;;;;;;14.45;4.45;;;13.60;99.90;;;;;;6007687;23;20063;-44
2022/03/19 08:25:29;;;;;;;14.93;4.50;;;13.70;99.90;;;;;;5952848;23;20054;-44
2022/03/19 08:28:55;;;;;;;17.20;4.32;;;13.40;99.90;;;;;;6002683;23;20027;-45
2022/03/19 08:32:22;;;;;;;13.60;4.38;;;13.40;99.90;;;;;;6000159;23;20016;-46
2022/03/19 08:35:46;;;;;;;14.73;4.10;;;13.20;99.90;;;;;;5972417;23;20023;-46
2022/03/19 08:42:38;;;;;;;14.50;3.58;;;12.80;99.90;;;;;;6002705;23;20479;-46
2022/03/19 08:46:05;;;;;;;11.85;3.60;;;12.10;99.90;;;;;;5951955;23;20083;-47
2022/03/19 08:49:32;;;;;;;14.02;3.88;;;11.40;99.90;;;;;;5975721;23;20031;-45
2022/03/19 08:52:57;;;;;;;13.43;3.97;;;10.90;99.90;;;;;;5977358;23;20359;-45
2022/03/19 08:56:24;;;;;;;12.55;3.42;;;10.60;99.90;;;;;;5977873;23;20032;-45
2022/03/19 08:59:49;;;;;;;10.23;3.58;;;10.50;99.90;;;;;;6000697;23;20140;-45
2022/03/19 09:03:15;;;;;;;9.52;3.45;;;10.50;99.90;;;;;;5996184;23;20062;-44
2022/03/19 09:06:42;;;;;;;11.73;3.40;;;10.40;99.90;;;;;;5949813;23;20020;-44
2022/03/19 09:10:09;;;;;;;16.17;3.72;;;10.40;99.90;;;;;;5950060;23;20116;-46
2022/03/19 09:13:36;;;;;;;14.60;3.63;;;10.40;99.90;;;;;;5992560;23;20425;-45
2022/03/19 09:17:00;;;;;;;8.95;3.13;;;10.40;99.90;;;;;;5975244;23;20031;-45
2022/03/19 09:20:26;;;;;;;14.38;3.58;;;10.50;99.90;;;;;;6000972;23;20019;-44
2022/03/19 09:26:35;;;;;;;;;;;10.60;99.90;;;;;;5973080;23;20024;-44
2022/03/19 09:29:02;;;;;;;11.30;3.25;;;10.60;99.90;;;;;;5976786;23;19918;-44
2022/03/19 10:23:59;;;;;;;9.88;2.42;;;11.30;99.90;;;;;;6012407;23;20034;-45
2022/03/19 10:27:26;;;;;;;10.93;2.97;;;11.30;99.90;;;;;;6003277;23;20030;-45
2022/03/19 10:34:25;;;;;;;12.63;3.95;;;11.40;99.90;;;;;;6027655;23;20065;-41
2022/03/19 10:37:41;;;;;;;7.35;3.08;;;11.40;99.90;;;;;;6026166;23;20012;-41
2022/03/19 10:41:08;;;;;;;11.65;2.60;;;11.40;99.90;;;;;;6003629;23;20019;-41
2022/03/19 10:44:34;;;;;;;11.57;2.55;;;11.60;99.90;;;;;;5975046;23;20023;-45
2022/03/19 10:47:57;;;;;;;8.25;2.22;;;11.80;99.90;;;;;;6003873;23;20111;-41
2022/03/19 10:58:16;;;;;;;4.97;2.15;;;11.80;99.90;;;;;;6026928;23;20114;-41
2022/03/19 11:42:48;;;;;;;4.53;1.30;;;12.80;99.90;;;;;;5975437;23;20601;-41
